Latest Coastal Weather Observations for Coles Point

IDS60701

Issued at 11:05 pm CST Tuesday 16 September 2014 (issued every 10 minutes, with the page automatically refreshed every 10 minutes)

About coastal observations | Map of coastal stations | Coastal observations for SA | Marine services | Other Formats
Station Details ID: 018191 Name: COLES POINT Lat: -34.37 Lon: 135.37 Height: 28.0 m
Data from the previous 72 hours. | See also: Recent months at Coles Point
Date/Time
CST
Temp

°C
Wind Pressure Rain
since 9am
mm
Weather Cloud Vis
km
Sea
Height
m
Swell
Dir
 
Speed
knots
Gust
knots
hPa Trend Height
m
Period
s
Dir
16/11:00pm 12.4 SW 7 9 1021.7 - 1.8 - - - - - - -
16/10:30pm 12.4 WSW 6 9 1021.4 - 1.8 - - - - - - -
16/10:00pm 11.5 SW 5 8 1021.6 - 1.8 - - - - - - -
16/09:30pm 12.8 SW 8 11 1021.5 - 1.8 - - - - - - -
16/09:00pm 12.5 SW 7 11 1021.3 - 1.8 - - - - - - -
16/08:30pm 11.8 SW 9 11 1021.2 - 1.8 - - - - - - -
16/08:00pm 12.2 SW 7 10 1021.0 - 1.8 - - - - - - -
16/07:30pm 11.7 SW 7 9 1020.6 - 1.8 - - - - - - -
16/07:00pm 11.8 SW 7 9 1020.3 - 1.8 - - - - - - -
16/06:30pm 12.7 SW 10 14 1020.0 - 1.8 - - - - - - -
16/06:00pm 13.3 WSW 11 14 1019.6 - 1.8 - - - - - - -
16/05:30pm 13.5 SW 11 14 1019.2 - 1.8 - - - - - - -
16/05:00pm 13.4 SSW 11 15 1018.9 - 1.8 - - - - - - -
16/04:30pm 14.1 SW 10 13 1018.7 - 1.8 - - - - - - -
16/04:00pm 14.0 SSW 10 13 1018.6 - 1.8 - - - - - - -
16/03:30pm 14.3 SSW 9 12 1018.4 - 1.8 - - - - - - -
16/03:00pm 13.8 SSW 8 11 1018.4 - 1.8 - - - - - - -
16/02:30pm 14.1 SSW 9 13 1018.4 - 1.8 - - - - - - -
16/02:00pm 14.6 SW 8 11 1018.5 - 1.8 - - - - - - -
16/01:30pm 15.1 SSW 7 9 1018.5 - 1.8 - - - - - - -
16/01:00pm 13.8 SSW 9 12 1018.8 - 1.8 - - - - - - -
16/12:30pm 13.4 SSW 10 14 1019.0 - 1.8 - - - - - - -
16/12:00pm 13.2 SW 11 16 1019.5 - 1.4 Recent precip. - - - - - -
16/11:30am 15.4 W 7 10 1019.5 - 0.0 - - - - - - -
16/11:00am 14.9 W 7 10 1020.0 - 0.0 - - - - - - -
16/10:30am 14.0 WNW 7 9 1020.2 - 0.0 - - - - - - -
16/10:00am 12.8 WSW 11 15 1020.4 - 0.0 - - - - - - -
16/09:30am 15.0 W 7 9 1020.2 - 0.0 - - - - - - -
16/09:00am 14.7 W 5 7 1019.9 - 0.0 - - - - - - -
16/08:30am 14.3 W 6 8 1019.9 - 0.0 - - - - - - -
16/08:00am 14.0 W 5 8 1019.6 - 0.0 - - - - - - -
16/07:30am 13.4 W 5 8 1019.6 - 0.0 - - - - - - -
16/07:00am 13.0 WSW 6 9 1019.5 - 0.0 - - - - - - -
16/06:30am 12.4 WSW 5 8 1019.4 - 0.0 - - - - - - -
16/06:00am 12.6 WSW 7 10 1019.2 - 0.0 - - - - - - -
16/05:30am 12.6 WSW 9 12 1019.1 - 0.0 - - - - - - -
16/05:00am 12.3 WSW 8 12 1019.0 - 0.0 - - - - - - -
16/04:30am 12.7 WSW 9 13 1018.9 - 0.0 - - - - - - -
16/04:00am 12.6 WSW 9 14 1018.8 - 0.0 - - - - - - -
16/03:30am 12.9 WSW 10 13 1018.8 - 0.0 - - - - - - -
16/03:00am 12.7 WSW 9 11 1018.7 - 0.0 - - - - - - -
16/02:30am 12.8 WSW 9 12 1018.9 - 0.0 - - - - - - -
16/02:00am 13.0 WSW 10 13 1019.1 - 0.0 - - - - - - -
16/01:30am 13.4 WSW 11 14 1019.2 - 0.0 - - - - - - -
16/01:00am 13.1 WSW 10 13 1019.4 - 0.0 - - - - - - -
16/12:30am 13.3 SW 9 11 1019.5 - 0.0 - - - - - - -
16/12:00am 12.5 SW 6 9 1019.7 - 0.0 - - - - - - -
 
Date/Time
CST
Temp

°C
Wind Pressure Rain
since 9am
mm
Weather Cloud Vis
km
Sea
Height
m
Swell
Dir
 
Speed
knots
Gust
knots
hPa Trend Height
m
Period
s
Dir
15/11:30pm 12.4 SW 6 8 1019.7 - 0.0 - - - - - - -
15/11:00pm 12.2 SW 6 8 1019.8 - 0.0 - - - - - - -
15/10:30pm 12.1 SW 6 7 1019.9 - 0.0 - - - - - - -
15/10:00pm 12.6 SW 7 9 1020.2 - 0.0 - - - - - - -
15/09:30pm 12.4 SW 7 9 1020.2 - 0.0 - - - - - - -
15/09:00pm 12.4 SSW 5 8 1020.0 - 0.0 - - - - - - -
15/08:30pm 13.2 SSW 8 10 1020.2 - 0.0 - - - - - - -
15/08:00pm 13.6 SW 9 12 1019.8 - 0.0 - - - - - - -
15/07:30pm 13.0 SSW 7 10 1019.5 - 0.0 - - - - - - -
15/07:00pm 13.6 SW 9 11 1019.4 - 0.0 - - - - - - -
15/06:30pm 13.3 SSW 8 11 1019.0 - 0.0 - - - - - - -
15/06:00pm 14.0 SSW 8 11 1018.8 - 0.0 - - - - - - -
15/05:30pm 14.7 SSW 10 14 1018.6 - 0.0 - - - - - - -
15/05:00pm 15.4 SW 10 13 1018.4 - 0.0 - - - - - - -
15/04:30pm 15.8 SW 11 14 1018.3 - 0.0 - - - - - - -
15/04:00pm 16.2 SSW 12 15 1017.9 - 0.0 - - - - - - -
15/03:30pm 16.3 SSW 11 14 1017.8 - 0.0 - - - - - - -
15/03:00pm 16.7 SSW 12 15 1017.9 - 0.0 - - - - - - -
15/02:30pm 16.8 SW 14 18 1017.9 - 0.0 - - - - - - -
15/02:00pm 16.8 SW 14 18 1017.8 - 0.0 - - - - - - -
15/01:30pm 15.4 SSW 11 15 1017.8 - 0.0 - - - - - - -
15/01:00pm 16.5 SW 14 18 1018.0 - 0.0 - - - - - - -
15/12:30pm 16.3 SW 13 17 1018.1 - 0.0 - - - - - - -
15/12:00pm 17.2 SSW 14 19 1018.1 - 0.0 - - - - - - -
15/11:30am 16.8 SSW 13 17 1018.1 - 0.0 - - - - - - -
15/11:00am 16.9 SSW 15 20 1018.1 - 0.0 - - - - - - -
15/10:30am 16.8 SW 15 19 1018.0 - 0.0 - - - - - - -
15/10:00am 15.6 SW 15 20 1018.0 - 0.0 - - - - - - -
15/09:30am 16.1 SSW 15 21 1017.6 - 0.0 - - - - - - -
15/09:00am 15.0 SSW 16 22 1017.4 - 0.0 - - - - - - -
15/08:30am 15.1 SSW 14 20 1017.1 - 0.0 - - - - - - -
15/08:00am 15.1 SSW 15 20 1016.7 - 0.0 - - - - - - -
15/07:30am 14.4 SSW 15 21 1016.3 - 0.0 - - - - - - -
15/07:00am 14.2 SSW 14 22 1015.9 - 0.0 - - - - - - -
15/06:30am 14.6 SSW 14 20 1015.5 - 0.0 - - - - - - -
15/06:00am 14.6 SSW 16 22 1015.1 - 0.0 - - - - - - -
15/05:30am 14.6 SSW 14 18 1014.5 - 0.0 - - - - - - -
15/05:00am 14.4 SSW 14 21 1014.1 - 0.0 - - - - - - -
15/04:30am 14.6 SSW 15 20 1013.7 - 0.0 - - - - - - -
15/04:00am 14.6 SSW 16 22 1013.6 - 0.0 - - - - - - -
15/03:30am 14.6 SSW 15 21 1013.0 - 0.0 - - - - - - -
15/03:00am 14.8 SSW 15 20 1012.7 - 0.0 - - - - - - -
15/02:30am 14.7 SSW 15 20 1012.2 - 0.0 - - - - - - -
15/02:00am 14.6 SW 13 18 1012.0 - 0.0 - - - - - - -
15/01:30am 14.8 SW 9 13 1011.7 - 0.0 - - - - - - -
15/01:00am 14.9 SW 8 12 1011.3 - 0.0 - - - - - - -
15/12:30am 15.0 W 4 5 1011.2 - 0.0 - - - - - - -
15/12:00am 15.0 WNW 5 7 1011.1 - 0.0 - - - - - - -
 
Date/Time
CST
Temp

°C
Wind Pressure Rain
since 9am
mm
Weather Cloud Vis
km
Sea
Height
m
Swell
Dir
 
Speed
knots
Gust
knots
hPa Trend Height
m
Period
s
Dir
14/11:30pm 15.1 NW 7 10 1011.0 - 0.0 - - - - - - -
14/11:00pm 15.1 NW 8 13 1011.3 - 0.0 - - - - - - -
14/10:30pm 15.1 NW 10 14 1011.7 - 0.0 - - - - - - -
14/10:00pm 15.2 NW 10 14 1012.0 - 0.0 - - - - - - -
14/09:30pm 15.4 NW 11 17 1012.4 - 0.0 - - - - - - -
14/09:00pm 15.5 NW 10 15 1012.4 - 0.0 - - - - - - -
14/08:30pm 15.4 NW 10 14 1012.3 - 0.0 - - - - - - -
14/08:00pm 15.4 NW 11 16 1012.3 - 0.0 - - - - - - -
14/07:30pm 15.5 NW 14 20 1012.3 - 0.0 - - - - - - -
14/07:00pm 15.5 NW 14 20 1012.1 - 0.0 - - - - - - -
14/06:30pm 15.4 NW 13 20 1012.0 - 0.0 - - - - - - -
14/06:00pm 15.6 NW 14 19 1011.9 - 0.0 - - - - - - -
14/05:30pm 15.9 NW 14 19 1011.8 - 0.0 - - - - - - -
14/05:00pm 16.4 NW 13 20 1011.9 - 0.0 - - - - - - -
14/04:30pm 16.8 NW 15 19 1011.7 - 0.0 - - - - - - -
14/04:00pm 17.2 NW 13 19 1011.5 - 0.0 - - - - - - -
14/03:30pm 17.2 NW 13 19 1011.5 - 0.0 - - - - - - -
14/03:00pm 17.9 NW 13 18 1011.3 - 0.0 - - - - - - -
14/02:30pm 19.1 NW 11 17 1011.3 - 0.0 - - - - - - -
14/02:00pm 19.9 NNW 12 16 1011.3 - 0.0 - - - - - - -
14/01:30pm 21.2 NNW 11 17 1011.3 - 0.0 - - - - - - -
14/01:00pm 23.1 NW 11 20 1011.4 - 0.0 - - - - - - -
14/12:30pm 23.8 NNW 10 16 1011.9 - 0.0 - - - - - - -
14/12:00pm 26.8 N 17 24 1011.8 - 0.0 - - - - - - -
14/11:30am 23.9 NE 14 18 1012.4 - 0.0 - - - - - - -
14/11:00am 23.1 NNE 14 18 1013.0 - 0.0 - - - - - - -
14/10:30am 21.3 NNE 14 20 1013.6 - 0.0 - - - - - - -
14/10:00am 20.1 NNE 14 20 1014.3 - 0.0 - - - - - - -
14/09:30am 19.1 NE 14 19 1014.9 - 0.0 - - - - - - -
14/09:00am 18.7 NE 11 16 1015.5 - 0.2 - - - - - - -
14/08:30am 17.3 NNE 10 14 1016.1 - 0.2 - - - - - - -
14/08:00am 15.8 NNE 12 14 1016.1 - 0.2 - - - - - - -
14/07:30am 14.8 NE 12 14 1016.0 - 0.2 - - - - - - -
14/07:00am 13.0 NNE 11 14 1015.6 - 0.2 - - - - - - -
14/06:30am 12.3 NNE 12 14 1015.4 - 0.2 - - - - - - -
14/06:00am 12.5 NNE 12 14 1015.3 - 0.2 - - - - - - -
14/05:30am 13.6 NE 13 15 1015.3 - 0.2 - - - - - - -
14/05:00am 13.4 NE 8 11 1015.6 - 0.2 - - - - - - -
14/04:30am 13.4 NE 8 13 1015.9 - 0.2 - - - - - - -
14/04:00am 13.4 NE 9 11 1016.7 - 0.2 - - - - - - -
14/03:30am 13.9 NE 7 10 1017.0 - 0.2 - - - - - - -
14/03:00am 13.4 NE 12 15 1016.5 - 0.2 - - - - - - -
14/02:30am 13.6 NE 12 16 1016.5 - 0.2 - - - - - - -
14/02:00am 13.6 NE 12 16 1016.6 - 0.2 - - - - - - -
14/01:30am 13.4 NE 11 14 1017.2 - 0.2 - - - - - - -
14/01:00am 12.9 NE 9 12 1017.9 - 0.2 - - - - - - -
14/12:30am 11.7 E 7 8 1018.7 - 0.2 - - - - - - -
14/12:00am 11.8 E 7 9 1018.8 - 0.2 - - - - - - -
 
Date/Time
CST
Temp

°C
Wind Pressure Rain
since 9am
mm
Weather Cloud Vis
km
Sea
Height
m
Swell
Dir
 
Speed
knots
Gust
knots
hPa Trend Height
m
Period
s
Dir
13/11:30pm 13.2 NE 11 14 1018.4 - 0.2 - - - - - - -

Other Formats:

Comma delimited format used in spreadsheet applications
http://www.bom.gov.au/fwo/IDS60701/IDS60701.94658.axf

JavaScript Object Notation format (JSON) in row-major order
http://www.bom.gov.au/fwo/IDS60701/IDS60701.94658.json